createdAt,value
2018-07-24T00:01:09.698Z,97864.69
2018-07-24T00:03:38.928Z,97865.23
2018-07-24T00:06:08.225Z,97865.89
2018-07-24T00:08:37.505Z,97865.34
2018-07-24T00:11:07.377Z,97860.55
2018-07-24T00:13:36.698Z,97857.44
2018-07-24T00:16:06.275Z,97855.94
2018-07-24T00:18:35.547Z,97856.53
2018-07-24T00:21:04.821Z,97861.90
2018-07-24T00:23:34.131Z,97857.22
2018-07-24T00:26:03.398Z,97856.42
2018-07-24T00:28:32.881Z,97859.17
2018-07-24T00:31:02.213Z,97856.53
2018-07-24T00:33:31.505Z,97855.22
2018-07-24T00:36:00.797Z,97850.92
2018-07-24T00:38:30.049Z,97847.73
2018-07-24T00:40:59.331Z,97850.83
2018-07-24T00:43:28.665Z,97854.73
2018-07-24T00:45:57.979Z,97848.38
2018-07-24T00:48:27.358Z,97847.07
2018-07-24T00:50:56.764Z,97846.58
2018-07-24T00:53:26.157Z,97847.17
2018-07-24T00:55:55.564Z,97837.03
2018-07-24T00:58:24.879Z,97835.86
2018-07-24T01:00:54.203Z,97833.98
2018-07-24T01:03:23.583Z,97831.39
2018-07-24T01:05:52.905Z,97831.17
2018-07-24T01:08:22.175Z,97830.84
2018-07-24T01:10:51.478Z,97828.66
2018-07-24T01:13:20.767Z,97824.39
2018-07-24T01:15:50.076Z,97825.48
2018-07-24T01:18:19.377Z,97827.86
2018-07-24T01:20:48.692Z,97825.75
2018-07-24T01:23:17.982Z,97822.79
2018-07-24T01:25:47.292Z,97824.71
2018-07-24T01:28:16.599Z,97827.22
2018-07-24T01:30:45.996Z,97823.19
2018-07-24T01:33:15.253Z,97821.30
2018-07-24T01:35:44.746Z,97821.53
2018-07-24T01:38:14.501Z,97818.52
2018-07-24T01:40:43.862Z,97815.03
2018-07-24T01:43:13.258Z,97813.77
2018-07-24T01:45:42.508Z,97815.66
2018-07-24T01:48:11.915Z,97812.75
2018-07-24T01:50:41.192Z,97811.13
2018-07-24T01:53:10.498Z,97817.85
2018-07-24T01:55:39.521Z,97812.83
2018-07-24T01:58:08.892Z,97804.19
2018-07-24T02:00:38.196Z,97802.39
2018-07-24T02:03:07.546Z,97807.30
2018-07-24T02:05:36.815Z,97807.61
2018-07-24T02:08:06.166Z,97811.30
2018-07-24T02:10:35.549Z,97806.47
2018-07-24T02:13:04.857Z,97804.58
2018-07-24T02:15:34.158Z,97811.83
2018-07-24T02:18:03.502Z,97808.69
2018-07-24T02:20:32.789Z,97798.02
2018-07-24T02:23:02.103Z,97800.44
2018-07-24T02:25:31.357Z,97800.52
2018-07-24T02:28:00.640Z,97803.94
2018-07-24T02:30:29.879Z,97802.05
2018-07-24T02:32:59.199Z,97793.73
2018-07-24T02:35:28.457Z,97789.16
2018-07-24T02:37:57.778Z,97786.25
2018-07-24T02:40:26.820Z,97784.64
2018-07-24T02:42:56.276Z,97794.34
2018-07-24T02:45:25.552Z,97794.95
2018-07-24T02:47:54.836Z,97790.08
2018-07-24T02:50:24.110Z,97789.47
2018-07-24T02:52:53.425Z,97776.84
2018-07-24T02:55:22.721Z,97779.56
2018-07-24T02:57:52.501Z,97783.91
2018-07-24T03:00:22.248Z,97781.02
2018-07-24T03:02:51.747Z,97784.28
2018-07-24T03:05:21.418Z,97782.97
2018-07-24T03:07:50.870Z,97793.21
2018-07-24T03:10:20.262Z,97796.97
2018-07-24T03:12:49.558Z,97786.53
2018-07-24T03:15:18.883Z,97788.11
2018-07-24T03:17:48.212Z,97787.84
2018-07-24T03:20:17.511Z,97788.38
2018-07-24T03:22:46.779Z,97785.12
2018-07-24T03:25:15.810Z,97790.19
2018-07-24T03:27:45.125Z,97788.41
2018-07-24T03:30:14.470Z,97781.70
2018-07-24T03:32:43.827Z,97785.72
2018-07-24T03:35:13.142Z,97784.92
2018-07-24T03:37:42.431Z,97782.00
2018-07-24T03:40:11.714Z,97788.64
2018-07-24T03:42:40.993Z,97794.31
2018-07-24T03:45:10.382Z,97787.30
2018-07-24T03:47:39.735Z,97784.08
2018-07-24T03:50:09.089Z,97782.23
2018-07-24T03:52:38.364Z,97786.80
2018-07-24T03:55:07.686Z,97779.84
2018-07-24T03:57:37.050Z,97785.22
2018-07-24T04:00:07.235Z,97781.42
2018-07-24T04:02:36.538Z,97782.83
2018-07-24T04:05:06.016Z,97785.98
2018-07-24T04:07:35.358Z,97792.13
2018-07-24T04:10:04.782Z,97789.14
2018-07-24T04:12:34.102Z,97791.23
2018-07-24T04:15:03.382Z,97792.53
2018-07-24T04:17:32.666Z,97789.84
2018-07-24T04:20:02.008Z,97785.52
2018-07-24T04:22:31.279Z,97789.77
2018-07-24T04:25:00.645Z,97791.34
2018-07-24T04:27:29.937Z,97787.31
2018-07-24T04:29:59.457Z,97785.17
2018-07-24T04:32:28.534Z,97782.48
2018-07-24T04:34:57.974Z,97786.70
2018-07-24T04:37:27.399Z,97777.56
2018-07-24T04:39:56.789Z,97786.11
2018-07-24T04:42:26.033Z,97775.83
2018-07-24T04:44:55.378Z,97778.69
2018-07-24T04:47:24.398Z,97776.14
2018-07-24T04:49:53.713Z,97771.88
2018-07-24T04:52:23.070Z,97771.57
2018-07-24T04:54:52.093Z,97769.59
2018-07-24T04:57:21.380Z,97774.06
2018-07-24T04:59:50.678Z,97767.84
2018-07-24T05:02:19.918Z,97771.27
2018-07-24T05:04:49.178Z,97770.46
2018-07-24T05:07:18.439Z,97768.17
2018-07-24T05:09:47.676Z,97776.28
2018-07-24T05:12:16.921Z,97773.04
2018-07-24T05:14:46.202Z,97770.42
2018-07-24T05:17:15.503Z,97769.83
2018-07-24T05:19:44.747Z,97768.22
2018-07-24T05:22:14.009Z,97766.34
2018-07-24T05:24:43.273Z,97768.14
2018-07-24T05:27:12.718Z,97770.19
2018-07-24T05:29:41.997Z,97766.07
2018-07-24T05:32:11.458Z,97770.02
2018-07-24T05:34:40.734Z,97770.50
2018-07-24T05:37:09.992Z,97774.38
2018-07-24T05:39:39.234Z,97775.33
2018-07-24T05:42:08.604Z,97774.38
2018-07-24T05:44:37.854Z,97773.71
2018-07-24T05:47:07.183Z,97778.88
2018-07-24T05:49:36.489Z,97777.57
2018-07-24T05:52:05.840Z,97779.89
2018-07-24T05:54:35.136Z,97778.73
2018-07-24T05:57:04.518Z,97783.95
2018-07-24T05:59:33.846Z,97782.83
2018-07-24T06:02:03.304Z,97782.16
2018-07-24T06:04:32.564Z,97785.81
2018-07-24T06:07:02.945Z,97784.31
2018-07-24T06:09:32.557Z,97786.44
2018-07-24T06:12:01.915Z,97772.92
2018-07-24T06:14:31.319Z,97782.02
2018-07-24T06:17:00.741Z,97777.70
2018-07-24T06:19:30.162Z,97786.41
2018-07-24T06:21:59.386Z,97781.05
2018-07-24T06:24:28.725Z,97777.69
2018-07-24T06:26:58.093Z,97779.97
2018-07-24T06:29:27.633Z,97778.36
2018-07-24T06:31:56.760Z,97777.02
2018-07-24T06:34:26.253Z,97782.02
2018-07-24T06:36:55.597Z,97775.97
2018-07-24T06:39:24.930Z,97780.13
2018-07-24T06:41:54.249Z,97777.45
2018-07-24T06:44:23.671Z,97772.69
2018-07-24T06:46:53.006Z,97774.97
2018-07-24T06:49:22.541Z,97778.62
2018-07-24T06:51:52.076Z,97772.81
2018-07-24T06:54:21.402Z,97775.16
2018-07-24T06:56:50.742Z,97771.88
2018-07-24T06:59:20.021Z,97781.73
2018-07-24T07:01:49.401Z,97771.09
2018-07-24T07:04:18.748Z,97771.77
2018-07-24T07:06:48.182Z,97771.77
2018-07-24T07:09:17.482Z,97770.56
2018-07-24T07:11:46.804Z,97772.72
2018-07-24T07:14:16.138Z,97771.77
2018-07-24T07:16:45.407Z,97772.77
2018-07-24T07:19:14.539Z,97762.63
2018-07-24T07:21:44.594Z,97773.81
2018-07-24T07:24:14.038Z,97767.34
2018-07-24T07:26:43.911Z,97768.73
2018-07-24T07:29:13.556Z,97766.46
2018-07-24T07:31:43.156Z,97770.29
2018-07-24T07:34:12.636Z,97765.47
2018-07-24T07:36:42.001Z,97765.42
2018-07-24T07:39:12.065Z,97760.94
2018-07-24T07:41:41.774Z,97767.92
2018-07-24T07:44:11.274Z,97764.08
2018-07-24T07:46:40.335Z,97767.25
2018-07-24T07:49:09.657Z,97771.77
2018-07-24T07:51:38.994Z,97769.50
2018-07-24T07:54:08.322Z,97769.36
2018-07-24T07:56:37.666Z,97765.31
2018-07-24T07:59:07.163Z,97766.48
2018-07-24T08:01:37.340Z,97768.58
2018-07-24T08:04:07.309Z,97763.95
2018-07-24T08:06:36.673Z,97761.13
2018-07-24T08:09:09.307Z,97755.84
2018-07-24T08:11:38.576Z,97762.88
2018-07-24T08:14:07.935Z,97754.34
2018-07-24T08:16:37.211Z,97756.52
2018-07-24T08:19:06.634Z,97762.02
2018-07-24T08:21:35.875Z,97759.36
2018-07-24T08:24:05.150Z,97763.20
2018-07-24T08:26:34.392Z,97753.81
2018-07-24T08:29:03.818Z,97756.77
2018-07-24T08:31:36.410Z,97751.64
2018-07-24T08:34:05.751Z,97756.62
2018-07-24T08:36:34.807Z,97755.39
2018-07-24T08:39:05.127Z,97751.14
2018-07-24T08:41:34.447Z,97755.53
2018-07-24T08:44:04.154Z,97757.49
2018-07-24T08:46:33.472Z,97759.02
2018-07-24T08:49:02.763Z,97756.47
2018-07-24T08:51:32.373Z,97755.39
2018-07-24T08:54:01.845Z,97754.00
2018-07-24T08:56:31.076Z,97753.39
2018-07-24T08:59:00.395Z,97742.99
2018-07-24T09:01:29.788Z,97746.42
2018-07-24T09:03:59.119Z,97748.42
2018-07-24T09:06:28.428Z,97748.29
2018-07-24T09:08:57.691Z,97737.66
2018-07-24T09:11:26.994Z,97739.00
2018-07-24T09:13:56.345Z,97733.77
2018-07-24T09:16:25.618Z,97733.94
2018-07-24T09:18:55.020Z,97731.44
2018-07-24T09:21:24.300Z,97725.56
2018-07-24T09:23:53.649Z,97729.13
2018-07-24T09:26:23.281Z,97728.23
2018-07-24T09:28:52.625Z,97728.30
2018-07-24T09:31:22.365Z,97721.72
2018-07-24T09:33:51.649Z,97729.11
2018-07-24T09:36:20.985Z,97725.28
2018-07-24T09:38:50.325Z,97723.06
2018-07-24T09:41:19.676Z,97722.55
2018-07-24T09:43:49.002Z,97726.77
2018-07-24T09:46:18.354Z,97726.59
2018-07-24T09:48:47.740Z,97727.83
2018-07-24T09:51:17.055Z,97728.87
2018-07-24T09:53:46.275Z,97722.97
2018-07-24T09:56:15.353Z,97722.41
2018-07-24T09:58:44.594Z,97717.26
2018-07-24T10:01:19.191Z,97715.17
2018-07-24T10:03:48.492Z,97709.09
2018-07-24T10:06:17.802Z,97717.00
2018-07-24T10:08:47.115Z,97705.38
2018-07-24T10:11:16.477Z,97710.67
2018-07-24T10:13:45.756Z,97704.20
2018-07-24T10:16:15.075Z,97708.34
2018-07-24T10:18:44.434Z,97702.77
2018-07-24T10:21:13.553Z,97704.35
2018-07-24T10:23:42.790Z,97696.81
2018-07-24T10:26:12.103Z,97697.66
2018-07-24T10:28:41.386Z,97694.16
2018-07-24T10:31:10.555Z,97694.95
2018-07-24T10:33:39.900Z,97684.69
2018-07-24T10:36:09.168Z,97693.36
2018-07-24T10:38:38.446Z,97681.41
2018-07-24T10:41:07.857Z,97686.28
2018-07-24T10:43:37.277Z,97676.93
2018-07-24T10:46:06.673Z,97685.64
2018-07-24T10:48:35.973Z,97680.62
2018-07-24T10:51:05.294Z,97683.79
2018-07-24T10:53:34.734Z,97677.69
2018-07-24T10:56:04.086Z,97678.86
2018-07-24T10:58:33.443Z,97682.13
2018-07-24T11:01:02.867Z,97676.75
2018-07-24T11:03:32.246Z,97676.46
2018-07-24T11:06:01.720Z,97671.30
2018-07-24T11:08:31.198Z,97671.27
2018-07-24T11:11:00.664Z,97679.03
2018-07-24T11:13:30.002Z,97660.89
2018-07-24T11:15:59.613Z,97664.88
2018-07-24T11:18:28.967Z,97663.83
2018-07-24T11:20:58.359Z,97657.62
2018-07-24T11:23:27.807Z,97659.28
2018-07-24T11:25:57.129Z,97657.42
2018-07-24T11:28:26.190Z,97647.64
2018-07-24T11:30:55.281Z,97656.73
2018-07-24T11:33:24.970Z,97648.13
2018-07-24T11:35:54.396Z,97647.98
2018-07-24T11:38:23.605Z,97647.30
2018-07-24T11:40:52.975Z,97640.33
2018-07-24T11:43:22.414Z,97642.19
2018-07-24T11:45:51.752Z,97621.48
2018-07-24T11:48:20.885Z,97634.68
2018-07-24T11:50:50.214Z,97635.63
2018-07-24T11:53:19.588Z,97630.33
2018-07-24T11:55:48.949Z,97626.02
2018-07-24T11:58:18.322Z,97618.98
2018-07-24T12:00:47.659Z,97624.72
2018-07-24T12:03:17.046Z,97620.61
2018-07-24T12:05:46.447Z,97620.47
2018-07-24T12:08:15.967Z,97623.28
2018-07-24T12:10:45.395Z,97615.36
2018-07-24T12:13:14.460Z,97614.47
2018-07-24T12:15:43.774Z,97614.94
2018-07-24T12:18:13.261Z,97608.47
2018-07-24T12:20:42.601Z,97605.45
2018-07-24T12:23:11.995Z,97604.34
2018-07-24T12:25:41.396Z,97598.06
2018-07-24T12:28:10.737Z,97598.95
2018-07-24T12:30:40.216Z,97595.42
2018-07-24T12:33:10.110Z,97595.71
2018-07-24T12:35:39.829Z,97586.47
2018-07-24T12:38:09.219Z,97594.80
2018-07-24T12:40:38.708Z,97592.98
2018-07-24T12:43:08.796Z,97592.08
2018-07-24T12:45:38.237Z,97585.97
2018-07-24T12:48:07.643Z,97583.99
2018-07-24T12:50:36.742Z,97602.63
2018-07-24T12:53:06.138Z,97587.77
2018-07-24T12:55:35.604Z,97579.88
2018-07-24T12:58:05.099Z,97577.84
2018-07-24T13:00:34.422Z,97575.05
2018-07-24T13:03:03.866Z,97571.41
2018-07-24T13:05:33.249Z,97572.92
2018-07-24T13:08:02.646Z,97565.05
2018-07-24T13:10:31.944Z,97567.23
2018-07-24T13:13:01.309Z,97564.95
2018-07-24T13:15:30.635Z,97559.48
2018-07-24T13:17:59.984Z,97562.20
2018-07-24T13:20:29.326Z,97551.42
2018-07-24T13:22:58.773Z,97545.91
2018-07-24T13:25:28.111Z,97557.34
2018-07-24T13:27:57.487Z,97556.16
2018-07-24T13:30:26.560Z,97542.80
2018-07-24T13:32:55.868Z,97552.02
2018-07-24T13:35:25.296Z,97550.92
2018-07-24T13:37:54.645Z,97547.85
2018-07-24T13:40:24.055Z,97551.30
2018-07-24T13:42:53.390Z,97540.41
2018-07-24T13:45:22.750Z,97545.80
2018-07-24T13:47:52.157Z,97543.43
2018-07-24T13:50:21.524Z,97546.17
2018-07-24T13:52:50.871Z,97544.42
2018-07-24T13:55:20.281Z,97546.95
2018-07-24T13:57:49.562Z,97554.67
2018-07-24T14:00:18.887Z,97547.83
2018-07-24T14:02:48.151Z,97546.56
2018-07-24T14:05:17.422Z,97543.81
2018-07-24T14:07:46.725Z,97543.67
2018-07-24T14:10:16.024Z,97540.72
2018-07-24T14:12:45.830Z,97543.92
2018-07-24T14:15:15.139Z,97532.61
2018-07-24T14:17:44.418Z,97539.41
2018-07-24T14:20:13.878Z,97531.81
2018-07-24T14:22:43.175Z,97538.78
2018-07-24T14:25:12.434Z,97533.08
2018-07-24T14:27:41.771Z,97530.56
2018-07-24T14:30:11.201Z,97534.70
2018-07-24T14:32:40.478Z,97532.63
2018-07-24T14:35:09.746Z,97532.45
2018-07-24T14:37:39.062Z,97520.12
2018-07-24T14:40:08.334Z,97524.21
2018-07-24T14:42:38.196Z,97533.73
2018-07-24T14:45:07.658Z,97523.05
2018-07-24T14:47:36.910Z,97524.70
2018-07-24T14:50:06.235Z,97524.14
2018-07-24T14:52:35.563Z,97527.62
2018-07-24T14:55:04.969Z,97517.78
2018-07-24T14:57:34.205Z,97508.11
2018-07-24T15:00:03.694Z,97514.78
2018-07-24T15:02:33.010Z,97509.16
2018-07-24T15:05:02.314Z,97509.34
2018-07-24T15:07:31.586Z,97512.10
2018-07-24T15:10:01.015Z,97507.39
2018-07-24T15:12:30.302Z,97509.54
2018-07-24T15:14:59.369Z,97504.60
2018-07-24T15:17:28.657Z,97511.31
2018-07-24T15:19:57.992Z,97506.02
2018-07-24T15:22:27.317Z,97505.59
2018-07-24T15:24:56.742Z,97503.80
2018-07-24T15:27:26.324Z,97505.61
2018-07-24T15:29:55.667Z,97499.13
2018-07-24T15:32:25.090Z,97494.59
2018-07-24T15:34:54.639Z,97493.57
2018-07-24T15:37:24.091Z,97485.34
2018-07-24T15:39:53.638Z,97487.27
2018-07-24T15:42:23.525Z,97488.27
2018-07-24T15:44:53.055Z,97487.09
2018-07-24T15:47:22.370Z,97481.59
2018-07-24T15:49:52.007Z,97480.98
2018-07-24T15:52:21.369Z,97497.08
2018-07-24T15:54:50.730Z,97474.27
2018-07-24T15:57:20.145Z,97471.32
2018-07-24T15:59:49.434Z,97469.77
2018-07-24T16:02:18.723Z,97466.84
2018-07-24T16:04:47.959Z,97466.44
2018-07-24T16:07:17.230Z,97462.89
2018-07-24T16:09:46.485Z,97458.32
2018-07-24T16:12:15.796Z,97467.36
2018-07-24T16:14:45.041Z,97464.06
2018-07-24T16:17:14.453Z,97469.77
2018-07-24T16:19:44.153Z,97466.73
2018-07-24T16:22:14.209Z,97474.39
2018-07-24T16:24:43.567Z,97471.44
2018-07-24T16:27:12.876Z,97473.18
2018-07-24T16:29:42.197Z,97475.53
2018-07-24T16:32:11.991Z,97475.27
2018-07-24T16:34:41.290Z,97477.14
2018-07-24T16:37:10.611Z,97482.34
2018-07-24T16:39:39.942Z,97481.16
2018-07-24T16:42:09.329Z,97481.73
2018-07-24T16:44:38.583Z,97477.37
2018-07-24T16:47:07.970Z,97477.94
2018-07-24T16:49:37.207Z,97482.44
2018-07-24T16:52:06.612Z,97482.14
2018-07-24T16:54:35.946Z,97472.21
2018-07-24T16:57:05.359Z,97473.13
2018-07-24T16:59:34.770Z,97468.80
2018-07-24T17:02:04.066Z,97474.34
2018-07-24T17:04:33.422Z,97476.23
2018-07-24T17:07:02.690Z,97479.92
2018-07-24T17:09:32.047Z,97483.21
2018-07-24T17:12:19.366Z,97468.38
2018-07-24T17:14:48.610Z,97477.50
2018-07-24T17:17:19.413Z,97480.08
2018-07-24T17:19:50.698Z,97477.10
2018-07-24T17:22:22.417Z,97475.63
2018-07-24T17:24:51.752Z,97475.72
2018-07-24T17:27:28.899Z,97468.86
2018-07-24T17:30:12.306Z,97478.09
2018-07-24T17:32:43.912Z,97477.48
2018-07-24T17:35:16.317Z,97468.64
2018-07-24T17:37:48.197Z,97478.30
2018-07-24T17:40:24.208Z,97473.81
2018-07-24T17:42:58.242Z,97465.28
2018-07-24T17:45:29.463Z,97473.58
2018-07-24T17:48:00.288Z,97481.29
2018-07-24T17:50:29.582Z,97482.00
2018-07-24T17:52:58.696Z,97472.00
2018-07-24T17:55:27.965Z,97470.60
2018-07-24T17:57:57.282Z,97484.39
2018-07-24T18:00:26.693Z,97487.44
2018-07-24T18:02:55.981Z,97485.53
2018-07-24T18:05:25.294Z,97488.41
2018-07-24T18:07:54.591Z,97488.98
2018-07-24T18:10:23.858Z,97486.61
2018-07-24T18:12:53.244Z,97486.03
2018-07-24T18:15:22.644Z,97494.55
2018-07-24T18:17:51.890Z,97491.81
2018-07-24T18:20:21.130Z,97493.09
2018-07-24T18:22:50.379Z,97487.80
2018-07-24T18:25:19.613Z,97487.23
2018-07-24T18:27:48.944Z,97492.95
2018-07-24T18:30:18.183Z,97501.13
2018-07-24T18:32:47.202Z,97494.75
2018-07-24T18:35:16.539Z,97497.59
2018-07-24T18:37:45.876Z,97492.33
2018-07-24T18:40:15.250Z,97498.08
2018-07-24T18:42:44.522Z,97496.78
2018-07-24T18:45:13.831Z,97502.05
2018-07-24T18:47:43.966Z,97498.53
2018-07-24T18:50:13.326Z,97501.26
2018-07-24T18:52:42.598Z,97493.50
2018-07-24T18:55:12.112Z,97498.17
2018-07-24T18:57:41.511Z,97497.52
2018-07-24T19:00:10.877Z,97498.77
2018-07-24T19:02:40.298Z,97500.53
2018-07-24T19:05:09.723Z,97504.06
2018-07-24T19:07:38.727Z,97514.69
2018-07-24T19:10:08.123Z,97510.10
2018-07-24T19:12:37.522Z,97511.43
2018-07-24T19:15:07.776Z,97520.92
2018-07-24T19:17:37.242Z,97515.77
2018-07-24T19:20:06.529Z,97516.25
2018-07-24T19:22:35.878Z,97518.34
2018-07-24T19:25:05.325Z,97522.23
2018-07-24T19:27:34.333Z,97526.98
2018-07-24T19:30:03.389Z,97525.87
2018-07-24T19:32:32.755Z,97524.98
2018-07-24T19:35:01.941Z,97521.59
2018-07-24T19:37:31.272Z,97526.37
2018-07-24T19:40:00.642Z,97534.07
2018-07-24T19:42:29.894Z,97537.30
2018-07-24T19:44:59.248Z,97536.51
2018-07-24T19:47:28.561Z,97540.23
2018-07-24T19:49:57.969Z,97540.02
2018-07-24T19:52:27.254Z,97538.52
2018-07-24T19:54:56.815Z,97548.80
2018-07-24T19:57:26.071Z,97549.25
2018-07-24T19:59:55.407Z,97547.62
2018-07-24T20:02:24.740Z,97552.86
2018-07-24T20:04:53.998Z,97549.66
2018-07-24T20:07:23.297Z,97549.30
2018-07-24T20:09:52.869Z,97548.66
2018-07-24T20:12:22.149Z,97545.41
2018-07-24T20:14:51.427Z,97548.77
2018-07-24T20:17:20.737Z,97547.84
2018-07-24T20:19:50.073Z,97554.84
2018-07-24T20:22:19.431Z,97554.75
2018-07-24T20:24:48.910Z,97553.50
2018-07-24T20:27:18.285Z,97552.98
2018-07-24T20:29:47.655Z,97553.00
2018-07-24T20:32:17.018Z,97556.64
2018-07-24T20:34:46.279Z,97555.77
2018-07-24T20:37:15.596Z,97552.50
2018-07-24T20:39:44.956Z,97552.44
2018-07-24T20:42:14.262Z,97553.77
2018-07-24T20:44:43.293Z,97561.14
2018-07-24T20:47:12.924Z,97561.63
2018-07-24T20:49:42.196Z,97562.98
2018-07-24T20:52:12.046Z,97561.00
2018-07-24T20:54:41.299Z,97559.34
2018-07-24T20:57:10.670Z,97568.23
2018-07-24T20:59:39.864Z,97563.86
2018-07-24T21:02:09.233Z,97561.20
2018-07-24T21:05:34.746Z,97567.50
2018-07-24T21:11:15.529Z,97575.64
2018-07-24T21:13:45.002Z,97578.62
2018-07-24T21:16:14.386Z,97579.44
2018-07-24T21:18:43.714Z,97576.87
2018-07-24T21:21:13.022Z,97577.78
2018-07-24T21:23:42.467Z,97572.28
2018-07-24T21:26:11.771Z,97575.15
2018-07-24T21:28:41.329Z,97576.69
2018-07-24T21:31:10.647Z,97578.84
2018-07-24T21:33:40.034Z,97571.74
2018-07-24T21:36:09.310Z,97584.73
2018-07-24T21:38:38.830Z,97578.91
2018-07-24T21:41:08.257Z,97580.05
2018-07-24T21:43:37.532Z,97581.56
2018-07-24T21:46:06.837Z,97585.37
2018-07-24T21:48:36.146Z,97580.91
2018-07-24T21:51:05.460Z,97582.72
2018-07-24T21:53:34.591Z,97581.43
2018-07-24T21:56:03.891Z,97579.86
2018-07-24T21:58:33.066Z,97585.81
2018-07-24T22:01:07.708Z,97581.91
2018-07-24T22:03:37.144Z,97583.66
2018-07-24T22:06:06.498Z,97582.78
2018-07-24T22:08:35.937Z,97579.91
2018-07-24T22:11:05.358Z,97588.08
2018-07-24T22:13:35.278Z,97588.39
2018-07-24T22:16:04.581Z,97588.53
2018-07-24T22:18:34.016Z,97591.08
2018-07-24T22:21:03.453Z,97587.48
2018-07-24T22:23:32.664Z,97593.61
2018-07-24T22:26:02.046Z,97604.86
2018-07-24T22:28:31.498Z,97593.50
2018-07-24T22:31:00.862Z,97591.98
2018-07-24T22:33:30.279Z,97601.33
2018-07-24T22:35:59.860Z,97597.36
2018-07-24T22:38:29.185Z,97599.64
2018-07-24T22:40:58.567Z,97599.27
2018-07-24T22:43:28.024Z,97597.54
2018-07-24T22:45:57.377Z,97599.19
2018-07-24T22:48:26.669Z,97538.16
2018-07-24T22:50:55.962Z,97603.36
2018-07-24T22:53:25.440Z,97595.89
2018-07-24T22:55:54.873Z,97594.84
2018-07-24T22:58:24.200Z,97597.12
2018-07-24T23:00:53.578Z,97599.23
2018-07-24T23:03:23.024Z,97595.39
2018-07-24T23:05:52.245Z,97596.74
2018-07-24T23:08:21.552Z,97600.65
2018-07-24T23:10:50.892Z,97595.37
2018-07-24T23:13:20.171Z,97599.36
2018-07-24T23:15:49.612Z,97599.54
2018-07-24T23:18:19.042Z,97597.09
2018-07-24T23:20:48.341Z,97595.74
2018-07-24T23:23:17.931Z,97596.62
2018-07-24T23:25:47.274Z,97598.16
2018-07-24T23:28:16.545Z,97593.86
2018-07-24T23:30:45.914Z,97598.75
2018-07-24T23:33:15.200Z,97599.45
2018-07-24T23:35:44.517Z,97595.89
2018-07-24T23:38:13.598Z,97598.88
2018-07-24T23:40:42.918Z,97605.08
2018-07-24T23:43:12.151Z,97600.31
2018-07-24T23:45:41.859Z,97599.95
2018-07-24T23:48:11.139Z,97598.53
2018-07-24T23:50:40.398Z,97597.62
2018-07-24T23:53:09.381Z,97599.33
2018-07-24T23:55:38.619Z,97599.33
2018-07-24T23:58:08.008Z,97592.47
